Time;durP1;ratioP1;P1;durP2;ratioP2;P2;SDS_P1;SDS_P2;PMS_P1;PMS_P2;Temp;Humidity;BMP_temperature;BMP_pressure;BME280_temperature;BME280_humidity;BME280_pressure;Samples;Min_cycle;Max_cycle;Signal;HPM_P1;HPM_P2
2022/08/11 00:01:28;;;;;;;0.00;0.00;;;;;;;;;;4994780;28;20042;-87
2022/08/11 00:03:54;;;;;;;0.00;0.00;;;;;;;;;;4994700;28;20035;-88
2022/08/11 00:06:31;;;;;;;0.15;0.15;;;;;;;;;;4985614;28;20046;-88
2022/08/11 00:08:58;;;;;;;0.10;0.10;;;;;;;;;;4998796;28;20069;-89
2022/08/11 00:11:36;;;;;;;0.10;0.10;;;;;;;;;;4995056;28;20121;-90
2022/08/11 00:14:03;;;;;;;0.17;0.17;;;;;;;;;;4997455;28;20045;-87
2022/08/11 00:16:30;;;;;;;0.05;0.05;;;;;;;;;;5013616;28;20050;-88
2022/08/11 00:18:57;;;;;;;0.60;0.60;;;;;;;;;;4997675;28;20124;-88
2022/08/11 00:21:41;;;;;;;0.00;0.00;;;;;;;;;;4996630;28;20092;-88
2022/08/11 00:24:08;;;;;;;0.10;0.10;;;;;;;;;;4997716;28;20089;-87
2022/08/11 00:26:35;;;;;;;0.10;0.10;;;;;;;;;;4997098;28;20069;-89
2022/08/11 00:29:10;;;;;;;0.00;0.00;;;;;;;;;;4997800;28;20095;-89
2022/08/11 00:31:37;;;;;;;0.00;0.00;;;;;;;;;;4997442;28;20037;-88
2022/08/11 00:34:04;;;;;;;0.10;0.10;;;;;;;;;;4997950;28;20487;-88
2022/08/11 00:36:44;;;;;;;0.10;0.10;;;;;;;;;;4985806;28;20037;-89
2022/08/11 00:39:13;;;;;;;0.00;0.00;;;;;;;;;;5014059;28;20049;-89
2022/08/11 00:41:42;;;;;;;0.08;0.08;;;;;;;;;;5013467;28;20042;-88
2022/08/11 00:44:31;;;;;;;0.05;0.05;;;;;;;;;;4997308;28;20056;-87
2022/08/11 00:47:14;;;;;;;0.00;0.00;;;;;;;;;;4993654;28;20034;-88
2022/08/11 00:49:59;;;;;;;0.10;0.10;;;;;;;;;;4997102;28;20044;-88
2022/08/11 00:52:25;;;;;;;0.03;0.03;;;;;;;;;;5013634;28;20046;-88
2022/08/11 00:55:21;;;;;;;0.10;0.10;;;;;;;;;;4997289;28;20046;-88
2022/08/11 00:57:47;;;;;;;;;;;;;;;;;;4973694;28;20038;-87
2022/08/11 01:00:23;;;;;;;0.05;0.05;;;;;;;;;;4997051;28;19918;-87
2022/08/11 01:03:09;;;;;;;0.10;0.10;;;;;;;;;;4997121;28;20471;-88
2022/08/11 01:05:51;;;;;;;0.00;0.00;;;;;;;;;;4994595;28;20395;-88
2022/08/11 01:08:24;;;;;;;0.00;0.00;;;;;;;;;;4990259;28;20042;-89
2022/08/11 01:11:19;;;;;;;0.00;0.00;;;;;;;;;;4982042;28;20125;-89
2022/08/11 01:13:54;;;;;;;0.10;0.10;;;;;;;;;;4985193;28;20554;-89
2022/08/11 01:16:52;;;;;;;0.10;0.10;;;;;;;;;;4996907;28;20128;-89
2022/08/11 01:19:21;;;;;;;0.00;0.00;;;;;;;;;;4998046;28;20074;-89
2022/08/11 01:22:17;;;;;;;0.20;0.20;;;;;;;;;;4997260;28;20069;-87
2022/08/11 01:24:43;;;;;;;0.10;0.10;;;;;;;;;;4943245;28;20063;-88
2022/08/11 01:27:21;;;;;;;0.20;0.20;;;;;;;;;;4988364;28;20096;-89
2022/08/11 01:29:52;;;;;;;0.10;0.10;;;;;;;;;;4995553;28;20091;-87
2022/08/11 01:32:36;;;;;;;0.10;0.10;;;;;;;;;;4997251;28;20045;-88
2022/08/11 01:35:03;;;;;;;0.10;0.10;;;;;;;;;;4996799;28;20044;-88
2022/08/11 01:37:48;;;;;;;0.13;0.13;;;;;;;;;;4996457;28;20049;-88
2022/08/11 01:40:33;;;;;;;0.00;0.00;;;;;;;;;;5013862;28;20125;-88
2022/08/11 01:46:15;;;;;;;0.00;0.00;;;;;;;;;;5001104;28;20053;-88
2022/08/11 01:48:49;;;;;;;0.05;0.05;;;;;;;;;;4997143;28;20476;-88
2022/08/11 01:51:33;;;;;;;0.20;0.20;;;;;;;;;;5013154;28;20164;-87
2022/08/11 01:54:05;;;;;;;0.10;0.10;;;;;;;;;;4997010;28;20046;-89
2022/08/11 01:56:50;;;;;;;0.08;0.08;;;;;;;;;;4997595;28;20030;-89
2022/08/11 01:59:23;;;;;;;0.10;0.10;;;;;;;;;;5000439;28;20042;-87
2022/08/11 02:01:58;;;;;;;0.10;0.10;;;;;;;;;;5000947;28;20096;-87
2022/08/11 02:04:41;;;;;;;0.03;0.03;;;;;;;;;;5000003;28;20045;-87
2022/08/11 02:07:17;;;;;;;0.10;0.10;;;;;;;;;;4999375;28;20072;-88
2022/08/11 02:10:00;;;;;;;0.00;0.00;;;;;;;;;;5016565;28;20395;-88
2022/08/11 02:12:43;;;;;;;0.00;0.00;;;;;;;;;;4998672;28;20458;-88
2022/08/11 02:15:22;;;;;;;0.10;0.10;;;;;;;;;;5000009;28;20056;-88
2022/08/11 02:18:10;;;;;;;0.10;0.10;;;;;;;;;;4994940;28;20046;-88
2022/08/11 02:23:38;;;;;;;0.10;0.10;;;;;;;;;;5005399;28;20108;-87
2022/08/11 02:26:15;;;;;;;0.10;0.10;;;;;;;;;;4985400;28;20096;-86
2022/08/11 02:28:43;;;;;;;0.10;0.10;;;;;;;;;;4999384;28;20081;-87
2022/08/11 02:34:14;;;;;;;0.10;0.10;;;;;;;;;;4971229;28;20057;-88
2022/08/11 02:36:55;;;;;;;0.00;0.00;;;;;;;;;;4995273;28;20129;-87
2022/08/11 02:39:23;;;;;;;0.08;0.08;;;;;;;;;;4999957;28;20510;-89
2022/08/11 02:44:49;;;;;;;0.00;0.00;;;;;;;;;;5015465;28;20125;-89
2022/08/11 02:47:37;;;;;;;0.00;0.00;;;;;;;;;;4998487;28;20078;-87
2022/08/11 02:50:11;;;;;;;0.00;0.00;;;;;;;;;;5009022;28;20096;-87
2022/08/11 02:52:50;;;;;;;0.10;0.10;;;;;;;;;;5013951;28;20068;-88
2022/08/11 02:55:33;;;;;;;0.20;0.20;;;;;;;;;;4998499;28;20038;-87
2022/08/11 02:58:16;;;;;;;0.03;0.03;;;;;;;;;;4990418;28;20101;-88
2022/08/11 03:01:00;;;;;;;0.00;0.00;;;;;;;;;;4982584;28;20054;-88
2022/08/11 03:03:32;;;;;;;0.10;0.10;;;;;;;;;;4998937;28;20065;-88
2022/08/11 03:06:04;;;;;;;0.10;0.10;;;;;;;;;;5014636;28;20403;-89
2022/08/11 03:08:52;;;;;;;0.10;0.10;;;;;;;;;;4997548;28;20046;-88
2022/08/11 03:17:15;;;;;;;0.10;0.10;;;;;;;;;;5001748;28;20100;-88
2022/08/11 03:19:44;;;;;;;0.10;0.10;;;;;;;;;;4997947;28;20042;-88
2022/08/11 03:22:16;;;;;;;0.17;0.17;;;;;;;;;;4998166;28;20133;-88
2022/08/11 03:24:45;;;;;;;0.00;0.00;;;;;;;;;;4997719;28;20034;-88
2022/08/11 03:27:23;;;;;;;0.20;0.20;;;;;;;;;;5013804;28;20049;-87
2022/08/11 03:30:08;;;;;;;0.08;0.08;;;;;;;;;;4997860;28;20034;-87
2022/08/11 03:32:40;;;;;;;0.10;0.10;;;;;;;;;;4997895;28;20439;-86
2022/08/11 03:35:08;;;;;;;0.08;0.08;;;;;;;;;;4998072;28;20491;-87
2022/08/11 03:37:49;;;;;;;0.10;0.10;;;;;;;;;;5013607;28;20049;-87
2022/08/11 03:43:07;;;;;;;0.03;0.03;;;;;;;;;;5013865;28;20085;-88
2022/08/11 03:45:56;;;;;;;0.10;0.10;;;;;;;;;;4997265;28;20068;-88
2022/08/11 03:49:00;;;;;;;0.10;0.10;;;;;;;;;;4981810;28;20072;-87
2022/08/11 03:51:32;;;;;;;0.10;0.10;;;;;;;;;;4951028;28;20030;-88
2022/08/11 03:54:29;;;;;;;0.10;0.10;;;;;;;;;;4948099;28;20051;-87
2022/08/11 03:57:21;;;;;;;0.10;0.10;;;;;;;;;;4980855;28;20395;-87
2022/08/11 03:59:48;;;;;;;0.20;0.20;;;;;;;;;;4965493;28;20072;-88
2022/08/11 04:02:51;;;;;;;0.20;0.20;;;;;;;;;;4993344;28;20045;-87
2022/08/11 04:05:35;;;;;;;0.10;0.10;;;;;;;;;;4993280;28;20122;-88
2022/08/11 04:08:20;;;;;;;0.00;0.00;;;;;;;;;;4987837;28;20041;-87
2022/08/11 04:10:55;;;;;;;0.10;0.10;;;;;;;;;;5004460;28;20089;-87
2022/08/11 04:15:58;;;;;;;0.52;0.52;;;;;;;;;;5013498;28;20045;-87
2022/08/11 04:16:45;;;;;;;0.10;0.10;;;;;;;;;;5012816;28;20052;-88
2022/08/11 04:19:49;;;;;;;0.10;0.10;;;;;;;;;;4996975;28;20056;-87
2022/08/11 04:22:22;;;;;;;0.10;0.10;;;;;;;;;;4996985;28;20041;-86
2022/08/11 04:25:07;;;;;;;0.03;0.03;;;;;;;;;;4997226;28;20033;-88
2022/08/11 04:27:39;;;;;;;0.13;0.13;;;;;;;;;;4996525;28;20415;-87
2022/08/11 04:30:07;;;;;;;0.00;0.00;;;;;;;;;;4996287;28;20046;-88
2022/08/11 04:32:52;;;;;;;0.10;0.10;;;;;;;;;;4998388;28;20045;-89
2022/08/11 04:35:37;;;;;;;0.00;0.00;;;;;;;;;;5017915;28;20042;-86
2022/08/11 04:38:12;;;;;;;0.10;0.10;;;;;;;;;;4997580;28;20057;-88
2022/08/11 04:40:57;;;;;;;0.15;0.15;;;;;;;;;;4996695;28;20069;-88
2022/08/11 04:43:42;;;;;;;0.10;0.10;;;;;;;;;;4996223;28;20107;-88
2022/08/11 04:46:27;;;;;;;0.20;0.20;;;;;;;;;;5013052;28;20400;-87
2022/08/11 05:03:39;;;;;;;0.10;0.10;;;;;;;;;;5013054;28;20108;-90
2022/08/11 05:06:14;;;;;;;0.10;0.10;;;;;;;;;;4997026;28;20109;-87
2022/08/11 05:08:59;;;;;;;0.10;0.10;;;;;;;;;;4997307;28;20137;-87
2022/08/11 05:11:33;;;;;;;0.10;0.10;;;;;;;;;;4993118;28;20041;-88
2022/08/11 05:36:59;;;;;;;0.03;0.03;;;;;;;;;;5001875;28;20130;-86
2022/08/11 05:56:42;;;;;;;0.10;0.10;;;;;;;;;;5010745;28;20467;-92
2022/08/11 05:59:17;;;;;;;0.00;0.00;;;;;;;;;;5028962;28;20073;-91
2022/08/11 06:01:43;;;;;;;0.10;0.10;;;;;;;;;;5004830;28;20112;-94
2022/08/11 06:04:20;;;;;;;0.00;0.00;;;;;;;;;;5005025;28;20038;-91
2022/08/11 06:06:51;;;;;;;0.00;0.00;;;;;;;;;;5011120;28;20056;-95
2022/08/11 06:09:46;;;;;;;0.10;0.10;;;;;;;;;;5009204;28;20041;-89
2022/08/11 06:12:17;;;;;;;0.00;0.00;;;;;;;;;;5010818;28;20064;-92
2022/08/11 06:14:49;;;;;;;0.05;0.05;;;;;;;;;;5008499;28;20069;-93
2022/08/11 06:17:21;;;;;;;0.10;0.10;;;;;;;;;;5023194;28;20128;-93
2022/08/11 06:19:48;;;;;;;0.00;0.00;;;;;;;;;;5003133;28;20045;-93
2022/08/11 06:22:19;;;;;;;0.08;0.08;;;;;;;;;;5016018;28;20041;-87
2022/08/11 06:24:52;;;;;;;0.10;0.10;;;;;;;;;;5015093;28;20034;-87
2022/08/11 06:27:22;;;;;;;0.05;0.05;;;;;;;;;;4999802;28;20100;-89
2022/08/11 06:29:49;;;;;;;0.00;0.00;;;;;;;;;;5000220;28;20038;-88
2022/08/11 06:32:16;;;;;;;0.00;0.00;;;;;;;;;;5000325;28;20038;-89
2022/08/11 06:35:00;;;;;;;0.10;0.10;;;;;;;;;;5004530;28;20046;-87
2022/08/11 06:37:30;;;;;;;0.00;0.00;;;;;;;;;;4997721;28;20096;-88
2022/08/11 06:40:04;;;;;;;0.10;0.10;;;;;;;;;;5002353;28;20087;-88
2022/08/11 06:42:38;;;;;;;0.00;0.00;;;;;;;;;;5014947;28;20053;-86
2022/08/11 06:45:15;;;;;;;0.05;0.05;;;;;;;;;;4998000;28;20038;-87
2022/08/11 06:47:46;;;;;;;0.00;0.00;;;;;;;;;;5000148;28;20164;-87
2022/08/11 06:53:04;;;;;;;0.10;0.10;;;;;;;;;;5014111;28;20053;-89
2022/08/11 07:01:08;;;;;;;0.00;0.00;;;;;;;;;;5021112;28;20046;-87
2022/08/11 07:03:37;;;;;;;0.00;0.00;;;;;;;;;;4993626;28;20046;-87
2022/08/11 07:06:31;;;;;;;0.00;0.00;;;;;;;;;;5001264;28;20046;-87
2022/08/11 07:17:23;;;;;;;0.00;0.00;;;;;;;;;;5013232;28;20042;-85
2022/08/11 07:31:42;;;;;;;0.03;0.03;;;;;;;;;;5017823;28;20053;-88
2022/08/11 07:34:26;;;;;;;0.05;0.05;;;;;;;;;;4992611;28;20038;-91
2022/08/11 07:37:00;;;;;;;0.10;0.10;;;;;;;;;;4997201;28;20038;-91
2022/08/11 07:39:28;;;;;;;0.00;0.00;;;;;;;;;;4987214;28;20458;-88
2022/08/11 07:41:56;;;;;;;0.00;0.00;;;;;;;;;;5000256;28;20053;-92
2022/08/11 07:44:24;;;;;;;0.00;0.00;;;;;;;;;;5004121;28;20042;-92
2022/08/11 07:52:26;;;;;;;0.10;0.10;;;;;;;;;;5011087;28;20045;-88
2022/08/11 07:54:53;;;;;;;0.00;0.00;;;;;;;;;;4989015;28;20038;-87
2022/08/11 08:19:24;;;;;;;;;;;;;;;;;;5009982;28;20128;-90
2022/08/11 08:21:54;;;;;;;0.00;0.00;;;;;;;;;;5017886;28;19932;-88
2022/08/11 08:24:20;;;;;;;0.00;0.00;;;;;;;;;;5019187;28;20061;-89
2022/08/11 08:27:00;;;;;;;0.00;0.00;;;;;;;;;;5000971;28;20171;-90
2022/08/11 08:32:20;;;;;;;0.00;0.00;;;;;;;;;;5022906;28;20103;-93
2022/08/11 08:34:49;;;;;;;0.00;0.00;;;;;;;;;;5015207;28;20037;-91
2022/08/11 08:37:17;;;;;;;0.10;0.10;;;;;;;;;;4977502;28;20133;-93
2022/08/11 08:39:45;;;;;;;0.00;0.00;;;;;;;;;;5023709;28;20046;-91
2022/08/11 08:42:12;;;;;;;0.10;0.10;;;;;;;;;;5004884;28;20041;-87
2022/08/11 08:44:50;;;;;;;0.00;0.00;;;;;;;;;;5001105;28;20042;-90
2022/08/11 08:47:17;;;;;;;0.00;0.00;;;;;;;;;;4999486;28;20531;-90
2022/08/11 08:49:52;;;;;;;0.10;0.10;;;;;;;;;;5017372;28;20084;-89
2022/08/11 08:52:21;;;;;;;0.10;0.10;;;;;;;;;;4985616;28;20061;-88
2022/08/11 08:54:49;;;;;;;0.00;0.00;;;;;;;;;;5002781;28;20075;-88
2022/08/11 08:57:17;;;;;;;0.00;0.00;;;;;;;;;;5003829;28;20691;-89
2022/08/11 08:59:45;;;;;;;0.10;0.10;;;;;;;;;;5007313;28;20128;-90
2022/08/11 09:02:12;;;;;;;0.10;0.10;;;;;;;;;;5002302;28;20099;-89
2022/08/11 09:04:40;;;;;;;0.00;0.00;;;;;;;;;;4999516;28;20120;-89
2022/08/11 09:07:08;;;;;;;0.00;0.00;;;;;;;;;;5019252;28;20101;-89
2022/08/11 09:09:35;;;;;;;0.00;0.00;;;;;;;;;;5009679;28;20045;-89
2022/08/11 09:12:04;;;;;;;0.10;0.10;;;;;;;;;;5006663;28;20069;-86
2022/08/11 09:17:20;;;;;;;0.00;0.00;;;;;;;;;;5016885;28;20045;-86
2022/08/11 09:19:47;;;;;;;0.05;0.05;;;;;;;;;;5007761;28;20033;-87
2022/08/11 09:27:43;;;;;;;0.10;0.10;;;;;;;;;;5020910;28;20125;-88
2022/08/11 09:30:11;;;;;;;0.00;0.00;;;;;;;;;;5002837;28;20041;-88
2022/08/11 09:32:39;;;;;;;0.00;0.00;;;;;;;;;;5030214;28;20046;-91
2022/08/11 09:35:06;;;;;;;0.10;0.10;;;;;;;;;;4988221;28;20133;-88
2022/08/11 09:40:29;;;;;;;0.10;0.10;;;;;;;;;;5028201;28;20038;-92
2022/08/11 09:45:57;;;;;;;0.10;0.10;;;;;;;;;;5022220;28;20518;-89
2022/08/11 09:48:25;;;;;;;0.10;0.10;;;;;;;;;;5004583;28;20566;-89
2022/08/11 09:50:55;;;;;;;0.00;0.00;;;;;;;;;;5004612;28;20503;-89
2022/08/11 09:53:22;;;;;;;0.00;0.00;;;;;;;;;;5014347;28;20053;-88
2022/08/11 09:55:48;;;;;;;0.03;0.03;;;;;;;;;;5018739;28;20053;-92
2022/08/11 09:58:18;;;;;;;0.10;0.10;;;;;;;;;;5003546;28;20076;-91
2022/08/11 10:00:45;;;;;;;0.08;0.08;;;;;;;;;;5005678;28;20064;-91
2022/08/11 10:03:28;;;;;;;0.03;0.03;;;;;;;;;;5015188;28;20423;-88
2022/08/11 10:08:51;;;;;;;0.00;0.00;;;;;;;;;;5013009;28;20132;-94
2022/08/11 10:11:20;;;;;;;0.10;0.10;;;;;;;;;;5015866;28;20042;-96
2022/08/11 10:16:36;;;;;;;0.00;0.00;;;;;;;;;;5021200;28;20056;-95
2022/08/11 10:19:03;;;;;;;0.00;0.00;;;;;;;;;;5025949;28;20050;-92
2022/08/11 10:21:29;;;;;;;0.00;0.00;;;;;;;;;;5002745;28;20042;-93
2022/08/11 10:26:53;;;;;;;0.00;0.00;;;;;;;;;;5029923;28;20049;-95
2022/08/11 10:34:50;;;;;;;0.10;0.10;;;;;;;;;;5028697;28;20041;-95
2022/08/11 10:37:19;;;;;;;0.03;0.03;;;;;;;;;;5025023;28;20038;-93
2022/08/11 10:39:46;;;;;;;0.10;0.10;;;;;;;;;;5009147;28;20081;-92
2022/08/11 10:44:58;;;;;;;0.10;0.10;;;;;;;;;;5008231;28;20046;-93
2022/08/11 10:47:33;;;;;;;0.03;0.03;;;;;;;;;;5009117;28;20077;-92
2022/08/11 11:01:04;;;;;;;0.00;0.00;;;;;;;;;;5024540;28;20053;-93
2022/08/11 11:03:33;;;;;;;0.10;0.10;;;;;;;;;;5016867;28;20037;-95
2022/08/11 11:06:18;;;;;;;0.10;0.10;;;;;;;;;;5007523;28;20034;-94
2022/08/11 11:08:52;;;;;;;0.10;0.10;;;;;;;;;;5008154;28;20105;-95
2022/08/11 11:11:19;;;;;;;0.10;0.10;;;;;;;;;;5008151;28;20581;-95
2022/08/11 11:19:23;;;;;;;0.10;0.10;;;;;;;;;;5028978;28;20034;-94
2022/08/11 11:21:51;;;;;;;0.10;0.10;;;;;;;;;;5013237;28;20109;-94
2022/08/11 11:24:44;;;;;;;0.03;0.03;;;;;;;;;;5007051;28;20065;-95
2022/08/11 11:27:20;;;;;;;0.00;0.00;;;;;;;;;;5004652;28;20448;-94
2022/08/11 11:30:06;;;;;;;0.10;0.10;;;;;;;;;;5006492;28;20121;-93
2022/08/11 11:32:39;;;;;;;0.10;0.10;;;;;;;;;;5007613;28;20038;-92
2022/08/11 11:35:08;;;;;;;0.10;0.10;;;;;;;;;;5005975;28;20045;-91
2022/08/11 11:37:35;;;;;;;0.00;0.00;;;;;;;;;;5007893;28;20452;-94
2022/08/11 11:40:20;;;;;;;0.00;0.00;;;;;;;;;;5007255;28;20042;-94
2022/08/11 11:42:47;;;;;;;0.05;0.05;;;;;;;;;;5008704;28;20042;-96
2022/08/11 11:45:15;;;;;;;0.00;0.00;;;;;;;;;;5001399;28;20495;-87
2022/08/11 11:47:43;;;;;;;0.13;0.13;;;;;;;;;;5020449;28;20104;-91
2022/08/11 11:50:09;;;;;;;0.10;0.10;;;;;;;;;;5021729;28;20034;-90
2022/08/11 11:52:37;;;;;;;0.03;0.03;;;;;;;;;;5003090;28;20103;-90
2022/08/11 11:55:04;;;;;;;0.00;0.00;;;;;;;;;;5008843;28;20052;-89
2022/08/11 12:03:02;;;;;;;0.00;0.00;;;;;;;;;;5012656;28;20046;-91
2022/08/11 12:05:30;;;;;;;0.00;0.00;;;;;;;;;;5003898;28;20038;-91
2022/08/11 12:08:10;;;;;;;0.00;0.00;;;;;;;;;;5000474;28;20092;-90
2022/08/11 12:10:37;;;;;;;0.10;0.10;;;;;;;;;;5019777;28;20038;-91
2022/08/11 12:15:50;;;;;;;0.10;0.10;;;;;;;;;;5019049;28;20109;-91
2022/08/11 12:18:16;;;;;;;0.00;0.00;;;;;;;;;;5004273;28;20046;-91
2022/08/11 12:20:44;;;;;;;0.05;0.05;;;;;;;;;;5001044;28;20034;-89
2022/08/11 12:28:40;;;;;;;0.00;0.00;;;;;;;;;;5024715;28;20045;-91
2022/08/11 12:31:08;;;;;;;0.00;0.00;;;;;;;;;;5003830;28;20065;-92
2022/08/11 12:33:35;;;;;;;0.00;0.00;;;;;;;;;;5003065;28;20049;-93
2022/08/11 12:36:01;;;;;;;0.00;0.00;;;;;;;;;;5027624;28;20054;-90
2022/08/11 12:38:28;;;;;;;0.10;0.10;;;;;;;;;;5002371;28;20038;-93
2022/08/11 12:46:32;;;;;;;0.10;0.10;;;;;;;;;;5022115;28;20086;-90
2022/08/11 12:51:58;;;;;;;0.00;0.00;;;;;;;;;;5011328;28;20860;-91
2022/08/11 12:54:38;;;;;;;0.10;0.10;;;;;;;;;;5000850;28;20089;-93
2022/08/11 13:05:33;;;;;;;0.00;0.00;;;;;;;;;;5013201;28;20109;-88
2022/08/11 13:08:00;;;;;;;0.10;0.10;;;;;;;;;;4990998;28;20034;-90
2022/08/11 13:13:14;;;;;;;0.00;0.00;;;;;;;;;;5018829;28;20046;-92
2022/08/11 13:15:40;;;;;;;0.10;0.10;;;;;;;;;;5012658;28;20065;-92
2022/08/11 13:18:07;;;;;;;0.10;0.10;;;;;;;;;;4998929;28;20037;-90
2022/08/11 13:20:33;;;;;;;0.00;0.00;;;;;;;;;;5015654;28;20183;-91
2022/08/11 13:22:59;;;;;;;0.00;0.00;;;;;;;;;;5009004;28;20518;-90
2022/08/11 13:25:27;;;;;;;0.10;0.10;;;;;;;;;;4999133;28;20073;-90
2022/08/11 13:27:55;;;;;;;0.10;0.10;;;;;;;;;;5017642;28;20101;-90
2022/08/11 13:33:08;;;;;;;0.10;0.10;;;;;;;;;;5018022;28;20041;-91
2022/08/11 13:35:35;;;;;;;0.00;0.00;;;;;;;;;;4997804;28;20475;-91
2022/08/11 13:38:02;;;;;;;0.10;0.10;;;;;;;;;;5004590;28;20053;-94
2022/08/11 13:40:31;;;;;;;0.10;0.10;;;;;;;;;;5007551;28;20038;-96
2022/08/11 13:42:58;;;;;;;0.10;0.10;;;;;;;;;;5024631;28;20033;-93
2022/08/11 13:45:26;;;;;;;0.10;0.10;;;;;;;;;;5005564;28;20056;-90
2022/08/11 13:47:56;;;;;;;0.10;0.10;;;;;;;;;;5010245;28;20056;-95
2022/08/11 13:51:29;;;;;;;0.00;0.00;;;;;;;;;;5008108;28;20092;-95
2022/08/11 13:53:12;;;;;;;0.00;0.00;;;;;;;;;;5010297;28;20057;-96
2022/08/11 13:55:39;;;;;;;0.00;0.00;;;;;;;;;;5008981;28;20101;-93
2022/08/11 13:58:06;;;;;;;0.00;0.00;;;;;;;;;;5007972;28;20116;-94
2022/08/11 14:00:32;;;;;;;0.10;0.10;;;;;;;;;;5017492;28;20045;-96
2022/08/11 14:02:58;;;;;;;0.00;0.00;;;;;;;;;;5012817;28;20046;-96
2022/08/11 14:05:26;;;;;;;0.00;0.00;;;;;;;;;;5015507;28;20069;-94
2022/08/11 14:08:04;;;;;;;0.00;0.00;;;;;;;;;;5038261;28;20056;-95
2022/08/11 14:10:32;;;;;;;0.08;0.08;;;;;;;;;;5015009;28;20042;-96
2022/08/11 14:16:17;;;;;;;0.00;0.00;;;;;;;;;;4947383;29;20083;-96
2022/08/11 14:18:45;;;;;;;0.00;0.00;;;;;;;;;;4962347;28;20042;-95
2022/08/11 14:24:10;;;;;;;0.00;0.00;;;;;;;;;;5034705;28;20113;-96
2022/08/11 14:26:54;;;;;;;0.00;0.00;;;;;;;;;;5028530;28;20073;-91
2022/08/11 14:29:21;;;;;;;0.00;0.00;;;;;;;;;;5014994;28;20065;-95
2022/08/11 14:31:52;;;;;;;0.05;0.05;;;;;;;;;;5009668;28;20041;-96
2022/08/11 14:34:21;;;;;;;0.00;0.00;;;;;;;;;;5010532;28;20083;-95
2022/08/11 14:36:51;;;;;;;0.00;0.00;;;;;;;;;;5016766;28;20372;-95
2022/08/11 14:39:18;;;;;;;0.03;0.03;;;;;;;;;;5010505;28;20038;-94
2022/08/11 14:47:28;;;;;;;0.00;0.00;;;;;;;;;;5024842;28;20045;-96
2022/08/11 14:49:55;;;;;;;0.08;0.08;;;;;;;;;;5011024;28;20129;-96
2022/08/11 14:52:21;;;;;;;0.10;0.10;;;;;;;;;;5010164;28;20050;-96
2022/08/11 14:57:39;;;;;;;0.03;0.03;;;;;;;;;;5026960;28;20049;-94
2022/08/11 15:00:07;;;;;;;0.00;0.00;;;;;;;;;;5018143;28;20037;-96
2022/08/11 15:05:23;;;;;;;0.00;0.00;;;;;;;;;;5028072;28;20046;-91
2022/08/11 15:07:49;;;;;;;0.00;0.00;;;;;;;;;;5010863;28;20072;-92
2022/08/11 15:10:18;;;;;;;0.08;0.08;;;;;;;;;;5014677;28;20041;-95
2022/08/11 15:12:44;;;;;;;0.00;0.00;;;;;;;;;;5009766;28;20030;-95
2022/08/11 15:17:57;;;;;;;0.00;0.00;;;;;;;;;;5038069;28;20038;-95
2022/08/11 15:26:03;;;;;;;0.00;0.00;;;;;;;;;;5025276;28;20046;-94
2022/08/11 15:45:46;;;;;;;0.00;0.00;;;;;;;;;;5028033;28;20046;-96
2022/08/11 15:48:02;;;;;;;0.00;0.00;;;;;;;;;;5020607;28;20045;-95
2022/08/11 15:50:31;;;;;;;0.00;0.00;;;;;;;;;;5015667;28;20038;-96
2022/08/11 15:52:59;;;;;;;0.00;0.00;;;;;;;;;;5009066;28;20042;-95
2022/08/11 15:55:25;;;;;;;0.10;0.10;;;;;;;;;;4992165;28;20041;-96
2022/08/11 16:06:10;;;;;;;0.00;0.00;;;;;;;;;;5010446;28;20092;-94
2022/08/11 16:08:37;;;;;;;0.10;0.10;;;;;;;;;;5009653;28;20095;-93
2022/08/11 16:11:04;;;;;;;0.00;0.00;;;;;;;;;;5014697;28;20045;-93
2022/08/11 16:16:14;;;;;;;0.05;0.05;;;;;;;;;;5021865;28;20053;-95
2022/08/11 16:18:50;;;;;;;0.00;0.00;;;;;;;;;;5005131;28;20045;-93
2022/08/11 16:21:17;;;;;;;0.00;0.00;;;;;;;;;;5009477;28;20053;-91
2022/08/11 16:23:44;;;;;;;0.10;0.10;;;;;;;;;;5009363;28;20133;-93
2022/08/11 16:26:12;;;;;;;0.10;0.10;;;;;;;;;;5007577;28;20044;-92
2022/08/11 16:28:40;;;;;;;0.00;0.00;;;;;;;;;;5015628;28;20056;-92
2022/08/11 16:31:10;;;;;;;0.00;0.00;;;;;;;;;;5007402;28;20040;-94
2022/08/11 16:33:40;;;;;;;0.00;0.00;;;;;;;;;;5007163;28;20099;-94
2022/08/11 16:38:53;;;;;;;0.00;0.00;;;;;;;;;;5014538;28;20050;-94
2022/08/11 16:46:58;;;;;;;0.00;0.00;;;;;;;;;;5024769;28;20038;-91
2022/08/11 16:49:32;;;;;;;0.00;0.00;;;;;;;;;;4993409;28;20100;-94
2022/08/11 16:52:02;;;;;;;;;;;;;;;;;;5022729;28;20117;-94
2022/08/11 16:54:29;;;;;;;0.00;0.00;;;;;;;;;;5005921;28;19925;-94
2022/08/11 16:59:12;;;;;;;0.00;0.00;;;;;;;;;;5010165;28;20171;-95
2022/08/11 16:59:43;;;;;;;0.00;0.00;;;;;;;;;;5036739;28;20041;-94
2022/08/11 17:02:12;;;;;;;0.00;0.00;;;;;;;;;;5020467;28;20049;-94
2022/08/11 17:13:11;;;;;;;0.00;0.00;;;;;;;;;;5025459;28;20045;-94
2022/08/11 17:18:41;;;;;;;0.00;0.00;;;;;;;;;;5012630;28;20046;-94
2022/08/11 17:21:13;;;;;;;0.00;0.00;;;;;;;;;;5006442;28;20046;-93
2022/08/11 17:23:46;;;;;;;0.10;0.10;;;;;;;;;;5011159;28;20088;-94
2022/08/11 17:29:18;;;;;;;0.10;0.10;;;;;;;;;;5028178;28;20045;-95
2022/08/11 17:37:16;;;;;;;0.10;0.10;;;;;;;;;;5010570;28;20106;-94
2022/08/11 17:39:43;;;;;;;0.10;0.10;;;;;;;;;;5008849;28;20038;-95
2022/08/11 17:50:26;;;;;;;0.00;0.00;;;;;;;;;;5029084;28;20113;-94
2022/08/11 18:01:09;;;;;;;0.00;0.00;;;;;;;;;;5021714;28;20096;-94
2022/08/11 18:03:38;;;;;;;0.10;0.10;;;;;;;;;;5010889;28;20042;-92
2022/08/11 18:06:05;;;;;;;0.00;0.00;;;;;;;;;;4999568;28;20064;-92
